createdAt,value
2023-05-14T00:00:36.557Z,16
2023-05-14T00:03:08.959Z,20
2023-05-14T00:05:39.829Z,16
2023-05-14T00:08:10.939Z,18
2023-05-14T00:10:41.592Z,20
2023-05-14T00:13:12.170Z,16
2023-05-14T00:15:42.927Z,20
2023-05-14T00:18:13.810Z,16
2023-05-14T00:20:44.228Z,20
2023-05-14T00:23:14.965Z,17
2023-05-14T00:25:45.662Z,16
2023-05-14T00:28:16.220Z,16
2023-05-14T00:30:46.915Z,16
2023-05-14T00:33:17.293Z,16
2023-05-14T00:35:47.986Z,16
2023-05-14T00:38:18.771Z,16
2023-05-14T00:40:49.615Z,14
2023-05-14T00:43:21.282Z,16
2023-05-14T00:45:52.249Z,12
2023-05-14T00:48:22.744Z,12
2023-05-14T00:50:53.508Z,12
2023-05-14T00:53:24.841Z,12
2023-05-14T00:55:55.650Z,12
2023-05-14T00:58:25.867Z,12
2023-05-14T01:00:56.687Z,9
2023-05-14T01:03:28.344Z,12
2023-05-14T01:05:59.630Z,11
2023-05-14T01:08:30.292Z,8
2023-05-14T01:11:00.808Z,12
2023-05-14T01:13:31.789Z,12
2023-05-14T01:16:02.439Z,12
2023-05-14T01:18:33.379Z,8
2023-05-14T01:21:04.546Z,12
2023-05-14T01:23:35.553Z,12
2023-05-14T01:26:06.646Z,12
2023-05-14T01:28:37.966Z,12
2023-05-14T01:31:08.698Z,12
2023-05-14T01:33:40.220Z,8
2023-05-14T01:36:11.366Z,10
2023-05-14T01:38:42.141Z,8
2023-05-14T01:41:13.017Z,8
2023-05-14T01:43:43.911Z,11
2023-05-14T01:46:14.743Z,12
2023-05-14T01:48:45.717Z,12
2023-05-14T01:51:16.480Z,12
2023-05-14T01:53:47.271Z,11
2023-05-14T01:56:18.075Z,9
2023-05-14T01:58:48.704Z,9
2023-05-14T02:01:19.204Z,8
2023-05-14T02:03:49.988Z,8
2023-05-14T02:06:21.159Z,8
2023-05-14T02:08:51.908Z,8
2023-05-14T02:11:22.654Z,12
2023-05-14T02:13:53.393Z,8
2023-05-14T02:16:24.025Z,8
2023-05-14T02:18:55.646Z,10
2023-05-14T02:21:26.133Z,12
2023-05-14T02:23:56.742Z,8
2023-05-14T02:26:27.245Z,8
2023-05-14T02:28:57.903Z,8
2023-05-14T02:31:28.810Z,8
2023-05-14T02:33:59.961Z,8
2023-05-14T02:36:31.637Z,8
2023-05-14T02:39:02.703Z,10
2023-05-14T02:41:33.697Z,8
2023-05-14T02:44:04.631Z,8
2023-05-14T02:46:35.354Z,9
2023-05-14T02:49:05.978Z,8
2023-05-14T02:51:36.526Z,8
2023-05-14T02:54:07.372Z,8
2023-05-14T02:56:37.956Z,12
2023-05-14T02:59:08.889Z,8
2023-05-14T03:01:39.675Z,8
2023-05-14T03:04:10.843Z,9
2023-05-14T03:06:42.132Z,8
2023-05-14T03:09:12.893Z,12
2023-05-14T03:11:43.699Z,8
2023-05-14T03:14:14.495Z,8
2023-05-14T03:16:45.559Z,8
2023-05-14T03:19:16.537Z,8
2023-05-14T03:21:47.047Z,8
2023-05-14T03:24:18.031Z,8
2023-05-14T03:26:48.657Z,12
2023-05-14T03:29:19.342Z,8
2023-05-14T03:31:50.187Z,8
2023-05-14T03:34:20.365Z,8
2023-05-14T03:36:51.197Z,12
2023-05-14T03:39:22.201Z,8
2023-05-14T03:41:52.382Z,9
2023-05-14T03:44:23.530Z,12
2023-05-14T03:46:54.502Z,8
2023-05-14T03:49:24.679Z,12
2023-05-14T03:51:56.173Z,12
2023-05-14T03:54:26.848Z,8
2023-05-14T03:56:57.781Z,8
2023-05-14T03:59:28.363Z,8
2023-05-14T04:01:59.388Z,10
2023-05-14T04:04:30.269Z,12
2023-05-14T04:07:01.170Z,8
2023-05-14T04:09:30.658Z,9
2023-05-14T04:12:01.582Z,12
2023-05-14T04:14:33.230Z,12
2023-05-14T04:17:04.344Z,12
2023-05-14T04:19:35.780Z,12
2023-05-14T04:22:07.500Z,12
2023-05-14T04:24:37.792Z,8
2023-05-14T04:27:08.334Z,12
2023-05-14T04:29:39.394Z,15
2023-05-14T04:32:10.491Z,12
2023-05-14T04:34:41.480Z,12
2023-05-14T04:37:13.123Z,10
2023-05-14T04:39:43.383Z,10
2023-05-14T04:42:14.210Z,12
2023-05-14T04:44:46.038Z,12
2023-05-14T04:47:16.910Z,12
2023-05-14T04:49:47.643Z,12
2023-05-14T04:52:18.213Z,12
2023-05-14T04:54:49.247Z,12
2023-05-14T04:57:19.762Z,12
2023-05-14T04:59:50.536Z,12
2023-05-14T05:02:21.355Z,12
2023-05-14T05:04:54.736Z,16
2023-05-14T05:07:24.809Z,12
2023-05-14T05:09:55.392Z,12
2023-05-14T05:12:26.371Z,12
2023-05-14T05:14:57.486Z,12
2023-05-14T05:17:28.231Z,14
2023-05-14T05:19:59.026Z,16
2023-05-14T05:22:30.488Z,12
2023-05-14T05:25:02.404Z,16
2023-05-14T05:27:32.822Z,12
2023-05-14T05:30:03.651Z,12
2023-05-14T05:32:34.451Z,16
2023-05-14T05:35:05.155Z,12
2023-05-14T05:37:36.380Z,12
2023-05-14T05:40:07.392Z,12
2023-05-14T05:42:38.019Z,16
2023-05-14T05:45:08.917Z,12
2023-05-14T05:47:39.866Z,12
2023-05-14T05:50:11.271Z,12
2023-05-14T05:52:42.338Z,14
2023-05-14T05:55:13.429Z,16
2023-05-14T05:57:44.637Z,15
2023-05-14T06:00:15.583Z,16
2023-05-14T06:02:46.502Z,12
2023-05-14T06:05:17.429Z,16
2023-05-14T06:07:47.650Z,12
2023-05-14T06:10:18.402Z,12
2023-05-14T06:12:49.587Z,12
2023-05-14T06:15:19.998Z,15
2023-05-14T06:17:50.786Z,12
2023-05-14T06:20:21.893Z,12
2023-05-14T06:22:52.744Z,13
2023-05-14T06:25:22.523Z,15
2023-05-14T06:27:53.762Z,13
2023-05-14T06:30:24.330Z,16
2023-05-14T06:32:54.845Z,12
2023-05-14T06:35:25.398Z,16
2023-05-14T06:37:56.050Z,15
2023-05-14T06:40:26.839Z,16
2023-05-14T06:42:57.454Z,16
2023-05-14T06:45:28.201Z,15
2023-05-14T06:47:59.323Z,24
2023-05-14T06:50:29.778Z,20
2023-05-14T06:53:00.565Z,16
2023-05-14T06:55:31.188Z,19
2023-05-14T06:58:01.712Z,16
2023-05-14T07:00:36.693Z,12
2023-05-14T07:03:07.505Z,16
2023-05-14T07:05:38.287Z,16
2023-05-14T07:08:09.124Z,20
2023-05-14T07:10:39.509Z,20
2023-05-14T07:13:10.534Z,24
2023-05-14T07:15:41.402Z,14
2023-05-14T07:18:12.202Z,16
2023-05-14T07:20:43.306Z,16
2023-05-14T07:23:14.532Z,20
2023-05-14T07:25:44.701Z,16
2023-05-14T07:28:15.571Z,24
2023-05-14T07:30:46.908Z,16
2023-05-14T07:33:17.857Z,16
2023-05-14T07:35:48.426Z,24
2023-05-14T07:38:19.164Z,15
2023-05-14T07:40:49.412Z,16
2023-05-14T07:43:19.747Z,19
2023-05-14T07:45:50.464Z,16
2023-05-14T07:48:21.308Z,15
2023-05-14T07:50:51.991Z,16
2023-05-14T07:53:22.129Z,16
2023-05-14T07:55:52.709Z,24
2023-05-14T07:58:23.077Z,17
2023-05-14T08:00:53.736Z,17
2023-05-14T08:03:24.484Z,20
2023-05-14T08:05:55.806Z,16
2023-05-14T08:08:26.035Z,20
2023-05-14T08:10:56.981Z,20
2023-05-14T08:13:27.168Z,20
2023-05-14T08:15:57.585Z,16
2023-05-14T08:18:28.390Z,19
2023-05-14T08:20:58.754Z,17
2023-05-14T08:23:29.257Z,16
2023-05-14T08:25:59.906Z,20
2023-05-14T08:28:30.121Z,17
2023-05-14T08:31:01.530Z,16
2023-05-14T08:33:32.251Z,24
2023-05-14T08:36:02.386Z,20
2023-05-14T08:38:32.808Z,21
2023-05-14T08:41:03.154Z,32
2023-05-14T08:43:33.846Z,19
2023-05-14T08:46:03.857Z,21
2023-05-14T08:48:34.466Z,16
2023-05-14T08:51:04.879Z,17
2023-05-14T08:53:35.079Z,19
2023-05-14T08:56:05.526Z,24
2023-05-14T08:58:35.758Z,16
2023-05-14T09:01:05.810Z,16
2023-05-14T09:03:38.807Z,16
2023-05-14T09:06:08.984Z,18
2023-05-14T09:08:39.439Z,17
2023-05-14T09:11:09.522Z,20
2023-05-14T09:13:39.741Z,20
2023-05-14T09:16:10.507Z,21
2023-05-14T09:18:40.904Z,20
2023-05-14T09:21:11.360Z,20
2023-05-14T09:23:42.336Z,16
2023-05-14T09:26:12.495Z,26
2023-05-14T09:28:42.579Z,20
2023-05-14T09:31:13.089Z,12
2023-05-14T09:33:43.460Z,12
2023-05-14T09:36:13.653Z,16
2023-05-14T09:38:44.011Z,20
2023-05-14T09:41:15.689Z,12
2023-05-14T09:43:46.485Z,14
2023-05-14T09:46:16.574Z,16
2023-05-14T09:48:47.513Z,20
2023-05-14T09:51:17.839Z,12
2023-05-14T09:53:48.013Z,16
2023-05-14T09:56:19.336Z,15
2023-05-14T09:58:49.675Z,12
2023-05-14T10:01:23.869Z,12
2023-05-14T10:03:55.340Z,16
2023-05-14T10:06:26.200Z,12
2023-05-14T10:08:57.068Z,14
2023-05-14T10:11:28.089Z,16
2023-05-14T10:13:58.716Z,16
2023-05-14T10:16:30.520Z,16
2023-05-14T10:19:01.010Z,12
2023-05-14T10:21:31.599Z,13
2023-05-14T10:24:02.995Z,16
2023-05-14T10:26:33.388Z,16
2023-05-14T10:29:04.205Z,12
2023-05-14T10:31:34.811Z,15
2023-05-14T10:34:05.258Z,12
2023-05-14T10:36:35.825Z,12
2023-05-14T10:39:06.278Z,8
2023-05-14T10:41:41.901Z,12
2023-05-14T10:44:12.422Z,16
2023-05-14T10:46:43.171Z,12
2023-05-14T10:49:13.729Z,12
2023-05-14T10:51:46.035Z,12
2023-05-14T10:54:17.866Z,12
2023-05-14T10:56:48.219Z,12
2023-05-14T10:59:18.918Z,8
2023-05-14T11:01:49.199Z,8
2023-05-14T11:04:19.559Z,8
2023-05-14T11:06:49.696Z,8
2023-05-14T11:09:21.205Z,8
2023-05-14T11:11:51.621Z,8
2023-05-14T11:14:21.821Z,8
2023-05-14T11:16:53.883Z,8
2023-05-14T11:19:24.453Z,4
2023-05-14T11:21:54.442Z,8
2023-05-14T11:24:24.889Z,8
2023-05-14T11:26:55.229Z,8
2023-05-14T11:29:25.689Z,8
2023-05-14T11:31:56.716Z,8
2023-05-14T11:34:27.159Z,8
2023-05-14T11:36:58.195Z,8
2023-05-14T11:39:29.494Z,8
2023-05-14T11:42:00.142Z,21
2023-05-14T11:44:30.669Z,8
2023-05-14T11:47:01.057Z,8
2023-05-14T11:49:31.553Z,8
2023-05-14T11:52:02.023Z,12
2023-05-14T11:54:32.332Z,8
2023-05-14T11:57:03.075Z,12
2023-05-14T11:59:33.527Z,12
2023-05-14T12:02:04.278Z,8
2023-05-14T12:04:34.639Z,8
2023-05-14T12:07:05.193Z,12
2023-05-14T12:09:35.145Z,4
2023-05-14T12:12:05.958Z,9
2023-05-14T12:14:36.401Z,9
2023-05-14T12:17:07.249Z,12
2023-05-14T12:19:37.853Z,4
2023-05-14T12:22:08.417Z,8
2023-05-14T12:24:39.173Z,8
2023-05-14T12:27:09.932Z,4
2023-05-14T12:29:40.891Z,8
2023-05-14T12:32:11.821Z,14
2023-05-14T12:34:42.601Z,16
2023-05-14T12:37:13.262Z,16
2023-05-14T12:39:43.919Z,7
2023-05-14T12:42:15.022Z,4
2023-05-14T12:44:45.370Z,8
2023-05-14T12:47:16.044Z,8
2023-05-14T12:49:46.503Z,8
2023-05-14T12:52:22.613Z,8
2023-05-14T12:54:47.939Z,12
2023-05-14T12:57:18.510Z,14
2023-05-14T12:59:49.081Z,12
2023-05-14T13:02:20.011Z,8
2023-05-14T13:04:50.339Z,8
2023-05-14T13:07:20.822Z,9
2023-05-14T13:09:51.144Z,13
2023-05-14T13:12:22.048Z,8
2023-05-14T13:14:52.821Z,15
2023-05-14T13:17:23.373Z,12
2023-05-14T13:19:54.103Z,12
2023-05-14T13:22:24.527Z,8
2023-05-14T13:24:55.164Z,8
2023-05-14T13:27:25.770Z,16
2023-05-14T13:29:56.027Z,10
2023-05-14T13:32:26.591Z,20
2023-05-14T13:34:57.185Z,20
2023-05-14T13:37:27.611Z,9
2023-05-14T13:39:57.783Z,8
2023-05-14T13:42:28.867Z,12
2023-05-14T13:44:59.388Z,8
2023-05-14T13:47:29.916Z,12
2023-05-14T13:50:00.296Z,16
2023-05-14T13:52:30.860Z,13
2023-05-14T13:55:01.565Z,12
2023-05-14T13:57:32.840Z,8
2023-05-14T14:00:03.473Z,8
2023-05-14T14:02:34.268Z,8
2023-05-14T14:05:02.699Z,8
2023-05-14T14:07:33.222Z,8
2023-05-14T14:10:03.601Z,8
2023-05-14T14:12:34.339Z,8
2023-05-14T14:15:04.589Z,8
2023-05-14T14:17:35.019Z,12
2023-05-14T14:20:05.333Z,8
2023-05-14T14:22:35.952Z,8
2023-05-14T14:25:06.385Z,12
2023-05-14T14:27:36.781Z,8
2023-05-14T14:30:06.962Z,9
2023-05-14T14:32:37.201Z,8
2023-05-14T14:35:07.570Z,16
2023-05-14T14:37:38.029Z,15
2023-05-14T14:40:08.435Z,12
2023-05-14T14:42:39.798Z,8
2023-05-14T14:45:10.031Z,12
2023-05-14T14:47:40.909Z,12
2023-05-14T14:50:13.433Z,12
2023-05-14T14:52:45.581Z,9
2023-05-14T14:55:14.548Z,8
2023-05-14T14:57:45.743Z,12
2023-05-14T15:00:16.576Z,8
2023-05-14T15:02:49.982Z,12
2023-05-14T15:05:20.289Z,12
2023-05-14T15:07:50.081Z,8
2023-05-14T15:10:20.663Z,12
2023-05-14T15:12:51.615Z,12
2023-05-14T15:15:22.268Z,10
2023-05-14T15:17:52.617Z,11
2023-05-14T15:20:22.836Z,12
2023-05-14T15:22:53.444Z,12
2023-05-14T15:25:24.633Z,12
2023-05-14T15:27:55.079Z,16
2023-05-14T15:30:25.571Z,16
2023-05-14T15:32:55.994Z,16
2023-05-14T15:35:26.187Z,28
2023-05-14T15:37:56.447Z,33
2023-05-14T15:40:26.824Z,22
2023-05-14T15:42:56.968Z,31
2023-05-14T15:45:27.552Z,16
2023-05-14T15:47:56.684Z,19
2023-05-14T15:50:26.011Z,12
2023-05-14T15:52:56.320Z,12
2023-05-14T15:55:26.402Z,16
2023-05-14T15:57:57.559Z,12
2023-05-14T16:00:27.750Z,8
2023-05-14T16:02:58.317Z,8
2023-05-14T16:05:28.513Z,12
2023-05-14T16:07:58.938Z,16
2023-05-14T16:10:29.673Z,12
2023-05-14T16:13:00.405Z,16
2023-05-14T16:15:29.120Z,12
2023-05-14T16:18:00.329Z,13
2023-05-14T16:20:30.766Z,15
2023-05-14T16:23:01.031Z,12
2023-05-14T16:25:31.605Z,15
2023-05-14T16:28:01.902Z,16
2023-05-14T16:30:34.082Z,12
2023-05-14T16:33:05.092Z,12
2023-05-14T16:35:35.786Z,12
2023-05-14T16:38:06.324Z,12
2023-05-14T16:40:37.259Z,12
2023-05-14T16:43:07.691Z,12
2023-05-14T16:45:38.126Z,9
2023-05-14T16:48:09.124Z,12
2023-05-14T16:50:39.583Z,12
2023-05-14T16:53:10.208Z,12
2023-05-14T16:55:40.998Z,12
2023-05-14T16:58:11.545Z,12
2023-05-14T17:00:42.234Z,12
2023-05-14T17:03:12.385Z,14
2023-05-14T17:05:43.713Z,12
2023-05-14T17:08:13.933Z,12
2023-05-14T17:10:44.252Z,12
2023-05-14T17:13:14.495Z,16
2023-05-14T17:15:45.264Z,12
2023-05-14T17:18:16.876Z,12
2023-05-14T17:20:45.678Z,12
2023-05-14T17:23:16.061Z,12
2023-05-14T17:25:46.548Z,14
2023-05-14T17:28:16.794Z,16
2023-05-14T17:30:46.880Z,16
2023-05-14T17:33:15.627Z,16
2023-05-14T17:35:52.652Z,12
2023-05-14T17:38:23.292Z,12
2023-05-14T17:40:54.641Z,16
2023-05-14T17:43:24.666Z,16
2023-05-14T17:45:55.266Z,12
2023-05-14T17:48:40.843Z,12
2023-05-14T17:51:11.047Z,15
2023-05-14T17:53:41.212Z,12
2023-05-14T17:56:13.824Z,12
2023-05-14T17:58:47.147Z,12
2023-05-14T18:01:20.768Z,12
2023-05-14T18:04:00.436Z,12
2023-05-14T18:06:31.195Z,20
2023-05-14T18:09:02.383Z,16
2023-05-14T18:11:31.896Z,20
2023-05-14T18:14:07.728Z,20
2023-05-14T18:16:36.211Z,16
2023-05-14T18:19:06.494Z,20
2023-05-14T18:21:36.965Z,16
2023-05-14T18:24:07.131Z,16
2023-05-14T18:26:37.550Z,20
2023-05-14T18:29:07.527Z,19
2023-05-14T18:31:37.643Z,16
2023-05-14T18:34:07.920Z,20
2023-05-14T18:36:38.054Z,16
2023-05-14T18:39:08.670Z,20
2023-05-14T18:41:39.178Z,16
2023-05-14T18:44:15.202Z,19
2023-05-14T18:46:45.964Z,19
2023-05-14T18:49:16.144Z,20
2023-05-14T18:51:46.730Z,20
2023-05-14T18:54:23.630Z,20
2023-05-14T18:56:54.163Z,16
2023-05-14T18:59:24.594Z,20
2023-05-14T19:04:29.759Z,20
2023-05-14T19:06:59.566Z,19
2023-05-14T19:09:30.013Z,20
2023-05-14T19:12:06.857Z,20
2023-05-14T19:14:37.474Z,20
2023-05-14T19:17:07.844Z,20
2023-05-14T19:19:38.961Z,20
2023-05-14T19:22:09.419Z,20
2023-05-14T19:24:39.705Z,20
2023-05-14T19:27:10.348Z,20
2023-05-14T19:29:40.863Z,20
2023-05-14T19:32:11.377Z,20
2023-05-14T19:34:41.991Z,19
2023-05-14T19:37:12.538Z,24
2023-05-14T19:39:42.724Z,20
2023-05-14T19:42:18.794Z,20
2023-05-14T19:44:49.564Z,20
2023-05-14T19:49:56.808Z,20
2023-05-14T19:52:27.041Z,20
2023-05-14T19:54:57.422Z,16
2023-05-14T19:57:27.807Z,17
2023-05-14T19:59:58.299Z,20
2023-05-14T20:02:34.686Z,20
2023-05-14T20:05:05.367Z,20
2023-05-14T20:07:36.826Z,20
2023-05-14T20:10:06.366Z,17
2023-05-14T20:12:36.919Z,19
2023-05-14T20:15:07.275Z,20
2023-05-14T20:17:39.172Z,20
2023-05-14T20:20:09.677Z,16
2023-05-14T20:22:39.899Z,16
2023-05-14T20:25:10.661Z,20
2023-05-14T20:27:41.746Z,16
2023-05-14T20:30:13.160Z,18
2023-05-14T20:32:43.210Z,16
2023-05-14T20:35:13.501Z,20
2023-05-14T20:37:44.123Z,19
2023-05-14T20:40:14.682Z,20
2023-05-14T20:42:44.837Z,20
2023-05-14T20:45:15.171Z,20
2023-05-14T20:47:45.667Z,16
2023-05-14T20:50:16.108Z,16
2023-05-14T20:52:46.717Z,20
2023-05-14T20:55:17.088Z,18
2023-05-14T20:57:48.036Z,17
2023-05-14T21:00:19.041Z,17
2023-05-14T21:02:49.702Z,20
2023-05-14T21:05:19.795Z,20
2023-05-14T21:07:50.624Z,20
2023-05-14T21:10:21.070Z,17
2023-05-14T21:12:51.664Z,19
2023-05-14T21:15:22.788Z,19
2023-05-14T21:17:53.487Z,20
2023-05-14T21:20:23.776Z,16
2023-05-14T21:22:54.805Z,20
2023-05-14T21:25:25.671Z,20
2023-05-14T21:27:56.359Z,16
2023-05-14T21:30:28.100Z,16
2023-05-14T21:33:06.133Z,20
2023-05-14T21:35:37.649Z,20
2023-05-14T21:38:10.235Z,20
2023-05-14T21:40:40.895Z,20
2023-05-14T21:43:15.000Z,20
2023-05-14T21:45:48.124Z,20
2023-05-14T21:48:19.677Z,20
2023-05-14T21:50:51.357Z,20
2023-05-14T21:53:22.027Z,20
2023-05-14T21:55:52.487Z,20
2023-05-14T21:58:21.965Z,20
2023-05-14T22:00:52.426Z,20
2023-05-14T22:03:23.154Z,20
2023-05-14T22:05:53.497Z,17
2023-05-14T22:08:27.843Z,16
2023-05-14T22:11:06.296Z,18
2023-05-14T22:13:36.258Z,20
2023-05-14T22:16:12.471Z,20
2023-05-14T22:18:41.341Z,20
2023-05-14T22:21:12.137Z,18
2023-05-14T22:23:43.054Z,16
2023-05-14T22:26:13.460Z,20
2023-05-14T22:28:45.451Z,20
2023-05-14T22:31:15.698Z,20
2023-05-14T22:33:46.188Z,16
2023-05-14T22:36:16.870Z,20
2023-05-14T22:38:47.623Z,16
2023-05-14T22:41:18.887Z,20
2023-05-14T22:43:49.656Z,20
2023-05-14T22:46:20.600Z,20
2023-05-14T22:48:51.229Z,20
2023-05-14T22:51:22.187Z,20
2023-05-14T22:53:53.231Z,20
2023-05-14T22:56:23.935Z,20
2023-05-14T22:58:55.350Z,20
2023-05-14T23:01:26.734Z,16
2023-05-14T23:03:57.290Z,20
2023-05-14T23:06:27.912Z,19
2023-05-14T23:08:59.132Z,20
2023-05-14T23:11:29.950Z,17
2023-05-14T23:14:00.641Z,16
2023-05-14T23:16:31.698Z,20
2023-05-14T23:19:03.539Z,20
2023-05-14T23:21:34.450Z,20
2023-05-14T23:24:04.927Z,20
2023-05-14T23:26:35.928Z,20
2023-05-14T23:29:07.296Z,16
2023-05-14T23:31:38.226Z,19
2023-05-14T23:34:09.340Z,17
2023-05-14T23:36:40.299Z,16
2023-05-14T23:39:11.653Z,20
2023-05-14T23:41:42.276Z,20
2023-05-14T23:44:13.639Z,17
2023-05-14T23:46:45.697Z,16
2023-05-14T23:49:16.255Z,20
2023-05-14T23:51:47.622Z,19
2023-05-14T23:54:18.540Z,18
2023-05-14T23:56:49.362Z,20
2023-05-14T23:59:20.808Z,16
